Applegate, Oregon
Current Conditions -  °F | °C
As of 7:53 AM on Sunday 23 Nov 2014 (Local Time) from KMFR Reporting Station
Overcast Overcast  
Wind Chill: 41°   Ceiling: 700
Heat Index: 41°   Visibility: 7mi
Dew Point: 40°   Wind: 0mph
Humidity: 96%   Direction: NA
Pressure: 30.42"   Gusts: NA
Location:  42.1499°N, 123.043°W
Report Text: KMFR 231553Z 00000KT 7SM OVC007 05/04 A3042 RMK AO2 SLP308 T00500044
Loading
Personal Weather Stations






























Interactive Weather Map New forecast layout! Learn more

10-Day Weather Forecast

Advertisements
Track Severe Weather on mobile